sensor_id;sensor_type;location;lat;lon;timestamp;temperature;humidity
32600;DHT22;19277;51.778;7.912;2022-10-16T00:00:37;23.80;81.00
32600;DHT22;19277;51.778;7.912;2022-10-16T00:03:04;23.80;81.00
32600;DHT22;19277;51.778;7.912;2022-10-16T00:05:31;23.80;81.00
32600;DHT22;19277;51.778;7.912;2022-10-16T00:07:56;23.80;81.00
32600;DHT22;19277;51.778;7.912;2022-10-16T00:10:23;23.80;81.00
32600;DHT22;19277;51.778;7.912;2022-10-16T00:12:49;23.80;81.00
32600;DHT22;19277;51.778;7.912;2022-10-16T00:15:15;23.80;81.00
32600;DHT22;19277;51.778;7.912;2022-10-16T00:17:41;23.80;81.00
32600;DHT22;19277;51.778;7.912;2022-10-16T00:20:06;23.80;81.00
32600;DHT22;19277;51.778;7.912;2022-10-16T00:22:33;23.80;81.00
32600;DHT22;19277;51.778;7.912;2022-10-16T00:24:58;23.80;81.00
32600;DHT22;19277;51.778;7.912;2022-10-16T00:27:24;23.80;81.10
32600;DHT22;19277;51.778;7.912;2022-10-16T00:29:52;23.80;81.10
32600;DHT22;19277;51.778;7.912;2022-10-16T00:32:19;23.80;81.20
32600;DHT22;19277;51.778;7.912;2022-10-16T00:34:45;23.80;81.30
32600;DHT22;19277;51.778;7.912;2022-10-16T00:37:11;23.80;81.40
32600;DHT22;19277;51.778;7.912;2022-10-16T00:39:37;23.80;81.40
32600;DHT22;19277;51.778;7.912;2022-10-16T00:42:02;23.80;81.40
32600;DHT22;19277;51.778;7.912;2022-10-16T00:44:48;23.80;81.40
32600;DHT22;19277;51.778;7.912;2022-10-16T00:48:02;23.80;81.40
32600;DHT22;19277;51.778;7.912;2022-10-16T00:50:31;23.90;81.50
32600;DHT22;19277;51.778;7.912;2022-10-16T00:52:59;23.80;81.50
32600;DHT22;19277;51.778;7.912;2022-10-16T00:55:26;23.90;81.50
32600;DHT22;19277;51.778;7.912;2022-10-16T00:57:54;23.80;81.40
32600;DHT22;19277;51.778;7.912;2022-10-16T01:00:22;23.90;81.50
32600;DHT22;19277;51.778;7.912;2022-10-16T01:02:57;23.90;81.50
32600;DHT22;19277;51.778;7.912;2022-10-16T01:05:25;23.90;81.50
32600;DHT22;19277;51.778;7.912;2022-10-16T01:08:15;23.80;81.40
32600;DHT22;19277;51.778;7.912;2022-10-16T01:10:54;23.90;81.50
32600;DHT22;19277;51.778;7.912;2022-10-16T01:13:32;23.90;81.50
32600;DHT22;19277;51.778;7.912;2022-10-16T01:16:07;23.90;81.40
32600;DHT22;19277;51.778;7.912;2022-10-16T01:18:52;23.90;81.40
32600;DHT22;19277;51.778;7.912;2022-10-16T01:21:27;23.80;81.40
32600;DHT22;19277;51.778;7.912;2022-10-16T01:24:25;23.90;81.50
32600;DHT22;19277;51.778;7.912;2022-10-16T01:27:26;23.80;81.60
32600;DHT22;19277;51.778;7.912;2022-10-16T01:32:43;23.90;81.70
32600;DHT22;19277;51.778;7.912;2022-10-16T01:35:31;23.90;81.70
32600;DHT22;19277;51.778;7.912;2022-10-16T01:41:00;23.90;81.60
32600;DHT22;19277;51.778;7.912;2022-10-16T01:43:36;23.90;81.60
32600;DHT22;19277;51.778;7.912;2022-10-16T01:46:03;23.90;81.50
32600;DHT22;19277;51.778;7.912;2022-10-16T01:48:30;23.80;81.50
32600;DHT22;19277;51.778;7.912;2022-10-16T01:51:04;23.90;81.50
32600;DHT22;19277;51.778;7.912;2022-10-16T01:53:31;23.90;81.50
32600;DHT22;19277;51.778;7.912;2022-10-16T01:55:59;23.90;81.50
32600;DHT22;19277;51.778;7.912;2022-10-16T01:58:26;23.90;81.50
32600;DHT22;19277;51.778;7.912;2022-10-16T02:00:54;23.90;81.50
32600;DHT22;19277;51.778;7.912;2022-10-16T02:03:20;23.90;81.40
32600;DHT22;19277;51.778;7.912;2022-10-16T02:05:51;23.90;81.40
32600;DHT22;19277;51.778;7.912;2022-10-16T02:08:18;23.90;81.40
32600;DHT22;19277;51.778;7.912;2022-10-16T02:10:44;23.90;81.40
32600;DHT22;19277;51.778;7.912;2022-10-16T02:13:13;23.90;81.30
32600;DHT22;19277;51.778;7.912;2022-10-16T02:15:41;23.90;81.30
32600;DHT22;19277;51.778;7.912;2022-10-16T02:18:07;23.90;81.30
32600;DHT22;19277;51.778;7.912;2022-10-16T02:23:43;23.90;81.20
32600;DHT22;19277;51.778;7.912;2022-10-16T02:26:14;23.90;81.20
32600;DHT22;19277;51.778;7.912;2022-10-16T02:28:50;23.90;81.20
32600;DHT22;19277;51.778;7.912;2022-10-16T02:31:22;23.90;81.30
32600;DHT22;19277;51.778;7.912;2022-10-16T02:33:50;23.90;81.20
32600;DHT22;19277;51.778;7.912;2022-10-16T02:36:16;23.90;81.20
32600;DHT22;19277;51.778;7.912;2022-10-16T02:38:42;23.90;81.30
32600;DHT22;19277;51.778;7.912;2022-10-16T02:41:08;23.90;81.30
32600;DHT22;19277;51.778;7.912;2022-10-16T02:43:34;23.90;81.30
32600;DHT22;19277;51.778;7.912;2022-10-16T02:46:00;23.90;81.30
32600;DHT22;19277;51.778;7.912;2022-10-16T02:48:25;23.90;81.30
32600;DHT22;19277;51.778;7.912;2022-10-16T02:50:51;23.90;81.30
32600;DHT22;19277;51.778;7.912;2022-10-16T02:53:16;23.90;81.30
32600;DHT22;19277;51.778;7.912;2022-10-16T02:55:42;23.90;81.40
32600;DHT22;19277;51.778;7.912;2022-10-16T02:58:08;23.90;81.50
32600;DHT22;19277;51.778;7.912;2022-10-16T03:00:33;23.80;81.50
32600;DHT22;19277;51.778;7.912;2022-10-16T03:02:59;23.80;81.60
32600;DHT22;19277;51.778;7.912;2022-10-16T03:05:24;23.90;81.60
32600;DHT22;19277;51.778;7.912;2022-10-16T03:07:50;23.90;81.70
32600;DHT22;19277;51.778;7.912;2022-10-16T03:10:18;23.90;81.60
32600;DHT22;19277;51.778;7.912;2022-10-16T03:12:44;23.90;81.60
32600;DHT22;19277;51.778;7.912;2022-10-16T03:15:10;23.80;81.60
32600;DHT22;19277;51.778;7.912;2022-10-16T03:17:35;23.90;81.80
32600;DHT22;19277;51.778;7.912;2022-10-16T03:20:01;23.80;81.70
32600;DHT22;19277;51.778;7.912;2022-10-16T03:22:27;23.80;81.60
32600;DHT22;19277;51.778;7.912;2022-10-16T03:24:52;23.80;81.70
32600;DHT22;19277;51.778;7.912;2022-10-16T03:27:18;23.90;81.80
32600;DHT22;19277;51.778;7.912;2022-10-16T03:29:44;23.80;81.60
32600;DHT22;19277;51.778;7.912;2022-10-16T03:32:09;23.80;81.60
32600;DHT22;19277;51.778;7.912;2022-10-16T03:34:35;23.80;81.60
32600;DHT22;19277;51.778;7.912;2022-10-16T03:37:00;23.90;81.60
32600;DHT22;19277;51.778;7.912;2022-10-16T03:39:26;23.80;81.50
32600;DHT22;19277;51.778;7.912;2022-10-16T03:41:52;23.80;81.50
32600;DHT22;19277;51.778;7.912;2022-10-16T03:44:18;23.80;81.60
32600;DHT22;19277;51.778;7.912;2022-10-16T03:46:43;23.90;81.60
32600;DHT22;19277;51.778;7.912;2022-10-16T03:49:09;23.80;81.60
32600;DHT22;19277;51.778;7.912;2022-10-16T03:51:34;23.90;81.60
32600;DHT22;19277;51.778;7.912;2022-10-16T03:54:00;23.90;81.50
32600;DHT22;19277;51.778;7.912;2022-10-16T03:56:26;23.90;81.60
32600;DHT22;19277;51.778;7.912;2022-10-16T03:58:51;23.90;81.60
32600;DHT22;19277;51.778;7.912;2022-10-16T04:01:17;23.90;81.60
32600;DHT22;19277;51.778;7.912;2022-10-16T04:03:42;23.80;81.50
32600;DHT22;19277;51.778;7.912;2022-10-16T04:06:08;23.80;81.50
32600;DHT22;19277;51.778;7.912;2022-10-16T04:08:34;23.90;81.60
32600;DHT22;19277;51.778;7.912;2022-10-16T04:11:02;23.80;81.60
32600;DHT22;19277;51.778;7.912;2022-10-16T04:13:28;23.90;81.60
32600;DHT22;19277;51.778;7.912;2022-10-16T04:15:53;23.90;81.50
32600;DHT22;19277;51.778;7.912;2022-10-16T04:18:19;23.90;81.50
32600;DHT22;19277;51.778;7.912;2022-10-16T04:20:44;23.80;81.50
32600;DHT22;19277;51.778;7.912;2022-10-16T04:23:10;23.90;81.50
32600;DHT22;19277;51.778;7.912;2022-10-16T04:25:36;23.90;81.50
32600;DHT22;19277;51.778;7.912;2022-10-16T04:28:01;23.80;81.40
32600;DHT22;19277;51.778;7.912;2022-10-16T04:30:27;23.90;81.50
32600;DHT22;19277;51.778;7.912;2022-10-16T04:32:53;23.80;81.50
32600;DHT22;19277;51.778;7.912;2022-10-16T04:35:20;23.80;81.50
32600;DHT22;19277;51.778;7.912;2022-10-16T04:37:46;23.80;81.50
32600;DHT22;19277;51.778;7.912;2022-10-16T04:40:11;23.80;81.50
32600;DHT22;19277;51.778;7.912;2022-10-16T04:42:37;23.80;81.50
32600;DHT22;19277;51.778;7.912;2022-10-16T04:45:04;23.80;81.50
32600;DHT22;19277;51.778;7.912;2022-10-16T04:47:30;23.80;81.50
32600;DHT22;19277;51.778;7.912;2022-10-16T04:49:56;23.80;81.50
32600;DHT22;19277;51.778;7.912;2022-10-16T04:52:22;23.80;81.60
32600;DHT22;19277;51.778;7.912;2022-10-16T04:54:50;23.80;81.60
32600;DHT22;19277;51.778;7.912;2022-10-16T04:57:16;23.80;81.60
32600;DHT22;19277;51.778;7.912;2022-10-16T04:59:41;23.80;81.60
32600;DHT22;19277;51.778;7.912;2022-10-16T05:02:07;23.80;81.60
32600;DHT22;19277;51.778;7.912;2022-10-16T05:04:32;23.80;81.60
32600;DHT22;19277;51.778;7.912;2022-10-16T05:06:58;23.80;81.60
32600;DHT22;19277;51.778;7.912;2022-10-16T05:09:24;23.80;81.60
32600;DHT22;19277;51.778;7.912;2022-10-16T05:11:49;23.80;80.30
32600;DHT22;19277;51.778;7.912;2022-10-16T05:14:15;23.80;80.00
32600;DHT22;19277;51.778;7.912;2022-10-16T05:16:40;23.80;81.00
32600;DHT22;19277;51.778;7.912;2022-10-16T05:19:06;23.80;81.00
32600;DHT22;19277;51.778;7.912;2022-10-16T05:21:32;23.80;81.10
32600;DHT22;19277;51.778;7.912;2022-10-16T05:23:57;23.80;81.70
32600;DHT22;19277;51.778;7.912;2022-10-16T05:26:23;23.80;81.10
32600;DHT22;19277;51.778;7.912;2022-10-16T05:28:49;23.80;81.10
32600;DHT22;19277;51.778;7.912;2022-10-16T05:31:15;23.80;81.20
32600;DHT22;19277;51.778;7.912;2022-10-16T05:33:41;23.80;81.20
32600;DHT22;19277;51.778;7.912;2022-10-16T05:36:08;23.80;81.20
32600;DHT22;19277;51.778;7.912;2022-10-16T05:38:34;23.90;81.20
32600;DHT22;19277;51.778;7.912;2022-10-16T05:41:01;23.80;81.20
32600;DHT22;19277;51.778;7.912;2022-10-16T05:43:28;23.80;81.20
32600;DHT22;19277;51.778;7.912;2022-10-16T05:45:55;23.80;81.10
32600;DHT22;19277;51.778;7.912;2022-10-16T05:48:21;23.80;81.60
32600;DHT22;19277;51.778;7.912;2022-10-16T05:50:47;23.90;81.20
32600;DHT22;19277;51.778;7.912;2022-10-16T05:53:13;23.90;81.20
32600;DHT22;19277;51.778;7.912;2022-10-16T05:55:38;23.90;81.20
32600;DHT22;19277;51.778;7.912;2022-10-16T05:58:04;23.90;81.10
32600;DHT22;19277;51.778;7.912;2022-10-16T06:00:29;23.90;81.10
32600;DHT22;19277;51.778;7.912;2022-10-16T06:02:55;23.90;81.40
32600;DHT22;19277;51.778;7.912;2022-10-16T06:05:20;23.80;81.40
32600;DHT22;19277;51.778;7.912;2022-10-16T06:07:46;23.90;81.40
32600;DHT22;19277;51.778;7.912;2022-10-16T06:10:12;23.90;81.40
32600;DHT22;19277;51.778;7.912;2022-10-16T06:12:37;23.90;81.50
32600;DHT22;19277;51.778;7.912;2022-10-16T06:15:03;23.90;81.50
32600;DHT22;19277;51.778;7.912;2022-10-16T06:17:29;23.90;81.60
32600;DHT22;19277;51.778;7.912;2022-10-16T06:19:54;23.90;81.60
32600;DHT22;19277;51.778;7.912;2022-10-16T06:22:20;23.90;81.50
32600;DHT22;19277;51.778;7.912;2022-10-16T06:24:45;23.90;81.90
32600;DHT22;19277;51.778;7.912;2022-10-16T06:27:11;23.90;81.50
32600;DHT22;19277;51.778;7.912;2022-10-16T06:29:37;23.90;81.60
32600;DHT22;19277;51.778;7.912;2022-10-16T06:32:03;23.90;81.50
32600;DHT22;19277;51.778;7.912;2022-10-16T06:34:28;23.90;81.30
32600;DHT22;19277;51.778;7.912;2022-10-16T06:36:54;23.90;81.20
32600;DHT22;19277;51.778;7.912;2022-10-16T06:39:19;23.90;81.20
32600;DHT22;19277;51.778;7.912;2022-10-16T06:41:45;23.90;81.10
32600;DHT22;19277;51.778;7.912;2022-10-16T06:44:10;23.90;81.30
32600;DHT22;19277;51.778;7.912;2022-10-16T06:46:36;23.90;81.40
32600;DHT22;19277;51.778;7.912;2022-10-16T06:49:02;23.90;81.40
32600;DHT22;19277;51.778;7.912;2022-10-16T06:51:27;23.90;81.90
32600;DHT22;19277;51.778;7.912;2022-10-16T06:53:54;23.90;81.40
32600;DHT22;19277;51.778;7.912;2022-10-16T06:56:26;23.90;81.30
32600;DHT22;19277;51.778;7.912;2022-10-16T06:58:53;24.00;81.40
32600;DHT22;19277;51.778;7.912;2022-10-16T07:01:20;23.90;81.30
32600;DHT22;19277;51.778;7.912;2022-10-16T07:03:46;24.00;81.40
32600;DHT22;19277;51.778;7.912;2022-10-16T07:06:15;24.00;81.30
32600;DHT22;19277;51.778;7.912;2022-10-16T07:08:42;24.00;81.30
32600;DHT22;19277;51.778;7.912;2022-10-16T07:11:10;23.90;81.20
32600;DHT22;19277;51.778;7.912;2022-10-16T07:13:37;24.00;81.30
32600;DHT22;19277;51.778;7.912;2022-10-16T07:16:13;23.90;81.20
32600;DHT22;19277;51.778;7.912;2022-10-16T07:18:39;23.90;81.20
32600;DHT22;19277;51.778;7.912;2022-10-16T07:21:10;24.00;81.30
32600;DHT22;19277;51.778;7.912;2022-10-16T07:23:37;24.00;81.30
32600;DHT22;19277;51.778;7.912;2022-10-16T07:26:04;24.00;81.40
32600;DHT22;19277;51.778;7.912;2022-10-16T07:28:30;24.00;81.40
32600;DHT22;19277;51.778;7.912;2022-10-16T07:31:03;24.00;81.40
32600;DHT22;19277;51.778;7.912;2022-10-16T07:33:30;24.00;81.30
32600;DHT22;19277;51.778;7.912;2022-10-16T07:35:56;24.00;81.30
32600;DHT22;19277;51.778;7.912;2022-10-16T07:38:22;24.00;81.50
32600;DHT22;19277;51.778;7.912;2022-10-16T07:40:48;24.00;81.80
32600;DHT22;19277;51.778;7.912;2022-10-16T07:43:14;24.00;82.00
32600;DHT22;19277;51.778;7.912;2022-10-16T07:45:49;24.00;82.30
32600;DHT22;19277;51.778;7.912;2022-10-16T07:48:16;24.00;82.50
32600;DHT22;19277;51.778;7.912;2022-10-16T07:50:42;24.00;82.80
32600;DHT22;19277;51.778;7.912;2022-10-16T07:53:08;24.00;83.10
32600;DHT22;19277;51.778;7.912;2022-10-16T07:55:34;24.00;83.10
32600;DHT22;19277;51.778;7.912;2022-10-16T07:58:00;24.10;83.00
32600;DHT22;19277;51.778;7.912;2022-10-16T08:00:25;24.10;83.50
32600;DHT22;19277;51.778;7.912;2022-10-16T08:02:51;24.00;83.80
32600;DHT22;19277;51.778;7.912;2022-10-16T08:05:16;24.10;83.90
32600;DHT22;19277;51.778;7.912;2022-10-16T08:07:42;24.10;83.90
32600;DHT22;19277;51.778;7.912;2022-10-16T08:10:16;24.10;83.70
32600;DHT22;19277;51.778;7.912;2022-10-16T08:12:42;24.10;83.60
32600;DHT22;19277;51.778;7.912;2022-10-16T08:15:08;24.10;83.80
32600;DHT22;19277;51.778;7.912;2022-10-16T08:17:33;24.10;84.00
32600;DHT22;19277;51.778;7.912;2022-10-16T08:19:59;24.00;84.10
32600;DHT22;19277;51.778;7.912;2022-10-16T08:22:25;24.00;84.10
32600;DHT22;19277;51.778;7.912;2022-10-16T08:24:50;24.00;84.20
32600;DHT22;19277;51.778;7.912;2022-10-16T08:27:16;24.10;84.20
32600;DHT22;19277;51.778;7.912;2022-10-16T08:29:41;24.00;84.20
32600;DHT22;19277;51.778;7.912;2022-10-16T08:32:07;24.10;84.20
32600;DHT22;19277;51.778;7.912;2022-10-16T08:34:32;24.10;84.40
32600;DHT22;19277;51.778;7.912;2022-10-16T08:36:58;24.10;84.70
32600;DHT22;19277;51.778;7.912;2022-10-16T08:39:23;24.10;84.40
32600;DHT22;19277;51.778;7.912;2022-10-16T08:45:02;24.10;84.80
32600;DHT22;19277;51.778;7.912;2022-10-16T08:48:45;24.10;84.70
32600;DHT22;19277;51.778;7.912;2022-10-16T08:50:39;24.10;84.50
32600;DHT22;19277;51.778;7.912;2022-10-16T08:53:06;24.10;84.40
32600;DHT22;19277;51.778;7.912;2022-10-16T08:56:01;24.10;84.40
32600;DHT22;19277;51.778;7.912;2022-10-16T08:58:28;24.10;84.30
32600;DHT22;19277;51.778;7.912;2022-10-16T09:00:57;24.10;84.30
32600;DHT22;19277;51.778;7.912;2022-10-16T09:22:29;24.10;84.70
32600;DHT22;19277;51.778;7.912;2022-10-16T09:25:00;24.10;84.80
32600;DHT22;19277;51.778;7.912;2022-10-16T09:27:26;24.10;84.80
32600;DHT22;19277;51.778;7.912;2022-10-16T09:29:52;24.10;84.90
32600;DHT22;19277;51.778;7.912;2022-10-16T09:32:20;24.10;84.90
32600;DHT22;19277;51.778;7.912;2022-10-16T09:34:52;24.10;85.00
32600;DHT22;19277;51.778;7.912;2022-10-16T09:37:20;24.10;85.00
32600;DHT22;19277;51.778;7.912;2022-10-16T09:39:51;24.10;84.70
32600;DHT22;19277;51.778;7.912;2022-10-16T09:42:19;24.10;85.10
32600;DHT22;19277;51.778;7.912;2022-10-16T09:44:50;24.10;85.10
32600;DHT22;19277;51.778;7.912;2022-10-16T09:47:22;24.10;85.00
32600;DHT22;19277;51.778;7.912;2022-10-16T09:50:02;24.10;84.90
32600;DHT22;19277;51.778;7.912;2022-10-16T09:52:30;24.10;85.40
32600;DHT22;19277;51.778;7.912;2022-10-16T09:54:58;24.10;84.80
32600;DHT22;19277;51.778;7.912;2022-10-16T09:57:24;24.10;84.80
32600;DHT22;19277;51.778;7.912;2022-10-16T09:59:52;24.10;84.70
32600;DHT22;19277;51.778;7.912;2022-10-16T10:02:34;24.10;84.70
32600;DHT22;19277;51.778;7.912;2022-10-16T10:05:00;24.10;84.60
32600;DHT22;19277;51.778;7.912;2022-10-16T10:07:31;24.10;84.70
32600;DHT22;19277;51.778;7.912;2022-10-16T10:10:03;24.10;84.60
32600;DHT22;19277;51.778;7.912;2022-10-16T10:12:33;24.10;84.70
32600;DHT22;19277;51.778;7.912;2022-10-16T10:15:07;24.10;85.00
32600;DHT22;19277;51.778;7.912;2022-10-16T10:17:46;24.10;85.10
32600;DHT22;19277;51.778;7.912;2022-10-16T10:20:23;24.20;85.20
32600;DHT22;19277;51.778;7.912;2022-10-16T10:22:49;24.10;85.10
32600;DHT22;19277;51.778;7.912;2022-10-16T10:25:31;24.20;85.20
32600;DHT22;19277;51.778;7.912;2022-10-16T10:28:14;24.10;85.10
32600;DHT22;19277;51.778;7.912;2022-10-16T10:36:16;24.20;85.10
32600;DHT22;19277;51.778;7.912;2022-10-16T10:38:50;24.20;85.20
32600;DHT22;19277;51.778;7.912;2022-10-16T10:46:51;24.20;85.10
32600;DHT22;19277;51.778;7.912;2022-10-16T10:49:30;24.20;85.00
32600;DHT22;19277;51.778;7.912;2022-10-16T10:52:39;24.20;85.00
32600;DHT22;19277;51.778;7.912;2022-10-16T11:00:49;24.20;84.90
32600;DHT22;19277;51.778;7.912;2022-10-16T11:09:07;24.20;85.10
32600;DHT22;19277;51.778;7.912;2022-10-16T11:11:40;24.20;84.90
32600;DHT22;19277;51.778;7.912;2022-10-16T11:14:21;24.20;84.80
32600;DHT22;19277;51.778;7.912;2022-10-16T11:17:02;24.20;84.60
32600;DHT22;19277;51.778;7.912;2022-10-16T11:22:02;24.20;84.40
32600;DHT22;19277;51.778;7.912;2022-10-16T11:25:14;24.20;84.20
32600;DHT22;19277;51.778;7.912;2022-10-16T11:27:39;24.20;84.10
32600;DHT22;19277;51.778;7.912;2022-10-16T11:30:34;24.20;84.00
32600;DHT22;19277;51.778;7.912;2022-10-16T11:38:30;24.20;84.20
32600;DHT22;19277;51.778;7.912;2022-10-16T11:41:47;24.20;83.70
32600;DHT22;19277;51.778;7.912;2022-10-16T11:44:20;24.20;83.60
32600;DHT22;19277;51.778;7.912;2022-10-16T11:47:40;24.20;83.50
32600;DHT22;19277;51.778;7.912;2022-10-16T11:55:36;24.20;83.30
32600;DHT22;19277;51.778;7.912;2022-10-16T11:58:07;24.20;83.20
32600;DHT22;19277;51.778;7.912;2022-10-16T12:00:59;24.20;83.10
32600;DHT22;19277;51.778;7.912;2022-10-16T12:03:43;24.20;83.10
32600;DHT22;19277;51.778;7.912;2022-10-16T12:09:29;24.20;83.00
32600;DHT22;19277;51.778;7.912;2022-10-16T12:11:55;24.20;82.90
32600;DHT22;19277;51.778;7.912;2022-10-16T12:16:55;24.20;82.80
32600;DHT22;19277;51.778;7.912;2022-10-16T12:19:22;24.20;82.80
32600;DHT22;19277;51.778;7.912;2022-10-16T12:21:49;24.20;82.80
32600;DHT22;19277;51.778;7.912;2022-10-16T12:24:36;24.20;82.70
32600;DHT22;19277;51.778;7.912;2022-10-16T12:27:04;24.20;82.80
32600;DHT22;19277;51.778;7.912;2022-10-16T12:29:33;24.20;83.00
32600;DHT22;19277;51.778;7.912;2022-10-16T12:32:02;24.20;83.10
32600;DHT22;19277;51.778;7.912;2022-10-16T12:37:15;24.20;83.20
32600;DHT22;19277;51.778;7.912;2022-10-16T12:39:45;24.20;83.30
32600;DHT22;19277;51.778;7.912;2022-10-16T12:42:33;24.20;83.40
32600;DHT22;19277;51.778;7.912;2022-10-16T12:44:59;24.20;83.50
32600;DHT22;19277;51.778;7.912;2022-10-16T12:49:57;24.20;83.60
32600;DHT22;19277;51.778;7.912;2022-10-16T12:52:34;24.20;83.60
32600;DHT22;19277;51.778;7.912;2022-10-16T12:55:01;24.20;83.60
32600;DHT22;19277;51.778;7.912;2022-10-16T13:00:24;24.20;83.60
32600;DHT22;19277;51.778;7.912;2022-10-16T13:06:13;24.20;83.40
32600;DHT22;19277;51.778;7.912;2022-10-16T13:11:52;24.20;83.30
32600;DHT22;19277;51.778;7.912;2022-10-16T13:14:44;24.20;83.20
32600;DHT22;19277;51.778;7.912;2022-10-16T13:17:32;24.20;83.30
32600;DHT22;19277;51.778;7.912;2022-10-16T13:28:29;24.20;83.30
32600;DHT22;19277;51.778;7.912;2022-10-16T13:30:58;24.20;83.30
32600;DHT22;19277;51.778;7.912;2022-10-16T13:33:35;24.20;83.40
32600;DHT22;19277;51.778;7.912;2022-10-16T13:36:03;24.20;83.40
32600;DHT22;19277;51.778;7.912;2022-10-16T13:38:33;24.20;83.60
32600;DHT22;19277;51.778;7.912;2022-10-16T13:41:13;24.20;83.80
32600;DHT22;19277;51.778;7.912;2022-10-16T13:43:48;24.30;84.00
32600;DHT22;19277;51.778;7.912;2022-10-16T13:46:19;24.30;84.10
32600;DHT22;19277;51.778;7.912;2022-10-16T13:49:10;24.20;84.20
32600;DHT22;19277;51.778;7.912;2022-10-16T13:51:36;24.30;84.40
32600;DHT22;19277;51.778;7.912;2022-10-16T13:54:02;24.30;84.50
32600;DHT22;19277;51.778;7.912;2022-10-16T13:56:29;24.30;84.50
32600;DHT22;19277;51.778;7.912;2022-10-16T13:59:04;24.30;84.60
32600;DHT22;19277;51.778;7.912;2022-10-16T14:01:40;24.30;84.60
32600;DHT22;19277;51.778;7.912;2022-10-16T14:04:08;24.30;84.50
32600;DHT22;19277;51.778;7.912;2022-10-16T14:06:35;24.30;84.60
32600;DHT22;19277;51.778;7.912;2022-10-16T14:09:07;24.30;84.60
32600;DHT22;19277;51.778;7.912;2022-10-16T14:11:42;24.30;84.60
32600;DHT22;19277;51.778;7.912;2022-10-16T14:14:11;24.30;84.50
32600;DHT22;19277;51.778;7.912;2022-10-16T14:16:41;24.30;85.00
32600;DHT22;19277;51.778;7.912;2022-10-16T14:21:41;24.30;85.60
32600;DHT22;19277;51.778;7.912;2022-10-16T14:24:26;24.30;85.20
32600;DHT22;19277;51.778;7.912;2022-10-16T14:26:52;24.30;85.10
32600;DHT22;19277;51.778;7.912;2022-10-16T14:29:21;24.40;85.20
32600;DHT22;19277;51.778;7.912;2022-10-16T14:32:01;24.40;85.10
32600;DHT22;19277;51.778;7.912;2022-10-16T14:34:37;24.40;85.10
32600;DHT22;19277;51.778;7.912;2022-10-16T14:39:39;24.40;85.00
32600;DHT22;19277;51.778;7.912;2022-10-16T14:42:14;24.40;84.90
32600;DHT22;19277;51.778;7.912;2022-10-16T14:44:41;24.40;84.80
32600;DHT22;19277;51.778;7.912;2022-10-16T14:47:09;24.40;84.70
32600;DHT22;19277;51.778;7.912;2022-10-16T14:49:38;24.40;84.70
32600;DHT22;19277;51.778;7.912;2022-10-16T14:52:09;24.40;84.90
32600;DHT22;19277;51.778;7.912;2022-10-16T14:54:35;24.40;84.90
32600;DHT22;19277;51.778;7.912;2022-10-16T14:57:01;24.40;84.80
32600;DHT22;19277;51.778;7.912;2022-10-16T14:59:40;24.40;84.80
32600;DHT22;19277;51.778;7.912;2022-10-16T15:02:28;24.40;84.70
32600;DHT22;19277;51.778;7.912;2022-10-16T15:04:55;24.40;84.60
32600;DHT22;19277;51.778;7.912;2022-10-16T15:07:21;24.40;84.50
32600;DHT22;19277;51.778;7.912;2022-10-16T15:09:47;24.30;84.40
32600;DHT22;19277;51.778;7.912;2022-10-16T15:12:12;24.40;84.40
32600;DHT22;19277;51.778;7.912;2022-10-16T15:14:38;24.30;84.30
32600;DHT22;19277;51.778;7.912;2022-10-16T15:17:04;24.30;84.20
32600;DHT22;19277;51.778;7.912;2022-10-16T15:19:30;24.30;84.20
32600;DHT22;19277;51.778;7.912;2022-10-16T15:21:56;24.40;84.20
32600;DHT22;19277;51.778;7.912;2022-10-16T15:24:22;24.30;84.00
32600;DHT22;19277;51.778;7.912;2022-10-16T15:26:47;24.30;84.00
32600;DHT22;19277;51.778;7.912;2022-10-16T15:29:14;24.30;83.90
32600;DHT22;19277;51.778;7.912;2022-10-16T15:31:39;24.30;83.90
32600;DHT22;19277;51.778;7.912;2022-10-16T15:34:09;24.30;83.90
32600;DHT22;19277;51.778;7.912;2022-10-16T15:36:36;24.30;83.90
32600;DHT22;19277;51.778;7.912;2022-10-16T15:39:16;24.30;84.40
32600;DHT22;19277;51.778;7.912;2022-10-16T15:41:43;24.30;83.80
32600;DHT22;19277;51.778;7.912;2022-10-16T15:44:09;24.30;83.70
32600;DHT22;19277;51.778;7.912;2022-10-16T15:46:34;24.30;83.70
32600;DHT22;19277;51.778;7.912;2022-10-16T15:49:01;24.30;83.70
32600;DHT22;19277;51.778;7.912;2022-10-16T15:51:27;24.30;83.70
32600;DHT22;19277;51.778;7.912;2022-10-16T15:53:55;24.30;83.60
32600;DHT22;19277;51.778;7.912;2022-10-16T15:56:22;24.30;83.60
32600;DHT22;19277;51.778;7.912;2022-10-16T15:58:48;24.30;83.50
32600;DHT22;19277;51.778;7.912;2022-10-16T16:01:14;24.30;83.50
32600;DHT22;19277;51.778;7.912;2022-10-16T16:03:39;24.30;83.40
32600;DHT22;19277;51.778;7.912;2022-10-16T16:06:08;24.30;83.40
32600;DHT22;19277;51.778;7.912;2022-10-16T16:08:34;24.30;83.40
32600;DHT22;19277;51.778;7.912;2022-10-16T16:11:05;24.30;83.30
32600;DHT22;19277;51.778;7.912;2022-10-16T16:13:32;24.30;83.30
32600;DHT22;19277;51.778;7.912;2022-10-16T16:15:57;24.30;83.20
32600;DHT22;19277;51.778;7.912;2022-10-16T16:18:23;24.30;83.20
32600;DHT22;19277;51.778;7.912;2022-10-16T16:20:50;24.30;83.10
32600;DHT22;19277;51.778;7.912;2022-10-16T16:23:16;24.30;83.10
32600;DHT22;19277;51.778;7.912;2022-10-16T16:25:42;24.30;83.10
32600;DHT22;19277;51.778;7.912;2022-10-16T16:28:08;24.30;83.00
32600;DHT22;19277;51.778;7.912;2022-10-16T16:30:36;24.30;83.00
32600;DHT22;19277;51.778;7.912;2022-10-16T16:33:01;24.30;82.90
32600;DHT22;19277;51.778;7.912;2022-10-16T16:35:27;24.30;82.90
32600;DHT22;19277;51.778;7.912;2022-10-16T16:37:52;24.30;82.80
32600;DHT22;19277;51.778;7.912;2022-10-16T16:40:18;24.30;82.80
32600;DHT22;19277;51.778;7.912;2022-10-16T16:42:43;24.30;82.80
32600;DHT22;19277;51.778;7.912;2022-10-16T16:45:09;24.30;82.70
32600;DHT22;19277;51.778;7.912;2022-10-16T16:47:35;24.30;82.70
32600;DHT22;19277;51.778;7.912;2022-10-16T16:50:00;24.30;82.70
32600;DHT22;19277;51.778;7.912;2022-10-16T16:52:30;24.30;82.70
32600;DHT22;19277;51.778;7.912;2022-10-16T16:54:55;24.30;82.60
32600;DHT22;19277;51.778;7.912;2022-10-16T16:57:21;24.30;82.60
32600;DHT22;19277;51.778;7.912;2022-10-16T16:59:46;24.30;82.60
32600;DHT22;19277;51.778;7.912;2022-10-16T17:02:12;24.30;82.50
32600;DHT22;19277;51.778;7.912;2022-10-16T17:04:38;24.30;82.50
32600;DHT22;19277;51.778;7.912;2022-10-16T17:07:03;24.20;82.40
32600;DHT22;19277;51.778;7.912;2022-10-16T17:09:32;24.30;82.50
32600;DHT22;19277;51.778;7.912;2022-10-16T17:11:57;24.30;82.50
32600;DHT22;19277;51.778;7.912;2022-10-16T17:14:23;24.30;82.40
32600;DHT22;19277;51.778;7.912;2022-10-16T17:16:48;24.20;82.30
32600;DHT22;19277;51.778;7.912;2022-10-16T17:19:16;24.30;82.40
32600;DHT22;19277;51.778;7.912;2022-10-16T17:21:43;24.30;82.40
32600;DHT22;19277;51.778;7.912;2022-10-16T17:24:09;24.30;82.30